Galicia — ECEC — position and weather

sailwx.info

Track history (hours):
 
Tides and Currents Weather Stations Pressure Air Temp Water Temp Dewpoint Dewpoint Depression Visibility Wind Speed Wind Dir Waves Ship Positions

Galicia

Last reported at 2015-Apr-26 13:11 UTC. Time now 2015-Apr-28 05:17 UTC.
Position N 36°35' E 000°17'.

Length 149 m; draft 5.7 m.

Type: Cargo ship. MMSI: 224548000.

Date/timePositionNaut miles runAvg speedWind from/ knotsBaromVisibWave heightAir tempDewpointWater temp
2015-Apr-26 13:11N 36°35' E 000°17'1113.6
2015-Apr-26 12:24N 36°45' E 000°21'1213.8
2015-Apr-26 11:34N 36°56' E 000°25'1414.2
2015-Apr-26 10:32N 37°10' E 000°30'1614.2
2015-Apr-26 09:23N 37°26' E 000°35'1214.2
2015-Apr-26 08:33N 37°37' E 000°39'1814.5
2015-Apr-26 07:20N 37°54' E 000°45'1314.4
2015-Apr-26 06:27N 38°07' E 000°49'1314.0
2015-Apr-26 05:33N 38°19' E 000°54'1514.3
2015-Apr-26 04:31N 38°33' E 000°59'1414.6
2015-Apr-26 03:33N 38°47' E 001°03'1414.1
2015-Apr-26 02:33N 39°00' E 001°08'1414.0
2015-Apr-26 01:33N 39°13' E 001°15'1414.3
2015-Apr-26 00:33N 39°27' E 001°21'1514.6
2015-Apr-25 23:33N 39°40' E 001°28'1515.0
2015-Apr-25 22:33N 39°54' E 001°34'1515.0
2015-Apr-25 21:33N 40°08' E 001°41'1414.5
2015-Apr-25 20:33N 40°22' E 001°47'1514.6
2015-Apr-25 19:34N 40°36' E 001°54'1514.8
2015-Apr-25 18:33N 40°50' E 002°00'1514.9
2015-Apr-25 17:33N 41°04' E 002°07'1514.5
2015-Apr-25 16:32N 41°18' E 002°10'0 0.0
2015-Apr-25 08:13N 41°18' E 002°11'1113.8
2015-Apr-25 07:25N 41°08' E 002°05'1314.8
2015-Apr-25 06:33N 40°59' E 001°53'1515.0
2015-Apr-25 05:34N 40°48' E 001°40'1212.0
2015-Apr-25 04:33N 40°39' E 001°29'1010.0
2015-Apr-25 03:33N 40°33' E 001°18'1110.0
2015-Apr-25 02:27N 40°26' E 001°07'910.0
2015-Apr-25 01:33N 40°20' E 000°58'1110.0
2015-Apr-25 00:27N 40°13' E 000°47'13 9.9
2015-Apr-24 23:07N 40°06' E 000°33'46 1.3
2015-Apr-23 12:33N 39°31' W 000°07'8514.1
2015-Apr-23 06:30N 38°08' E 000°20'3115.6
2015-Apr-23 04:32N 37°37' E 000°17'1815.8
2015-Apr-23 03:23N 37°19' E 000°14'1615.4
2015-Apr-23 02:22N 37°04' E 000°12'  
2015-Apr-20 14:26N 35°58' E 000°03'0 0.0
2015-Apr-20 13:26N 35°58' E 000°03'  
Track history (hours):
 
Tides and Currents Weather Stations Pressure Air Temp Water Temp Dewpoint Dewpoint Depression Visibility Wind Speed Wind Dir Waves Ship Positions

Galicia

Last reported at 2015-Apr-26 13:11 UTC. Time now 2015-Apr-28 05:17 UTC.
Position N 36°35' E 000°17'.

Length 149 m; draft 5.7 m.

Type: Cargo ship. MMSI: 224548000.

Date/timePositionNaut miles runAvg speedWind from/ knotsBaromVisibWave heightAir tempDewpointWater temp
2015-Apr-26 13:11N 36°35' E 000°17'1113.6
2015-Apr-26 12:24N 36°45' E 000°21'1213.8
2015-Apr-26 11:34N 36°56' E 000°25'1414.2
2015-Apr-26 10:32N 37°10' E 000°30'1614.2
2015-Apr-26 09:23N 37°26' E 000°35'1214.2
2015-Apr-26 08:33N 37°37' E 000°39'1814.5
2015-Apr-26 07:20N 37°54' E 000°45'1314.4
2015-Apr-26 06:27N 38°07' E 000°49'1314.0
2015-Apr-26 05:33N 38°19' E 000°54'1514.3
2015-Apr-26 04:31N 38°33' E 000°59'1414.6
2015-Apr-26 03:33N 38°47' E 001°03'1414.1
2015-Apr-26 02:33N 39°00' E 001°08'1414.0
2015-Apr-26 01:33N 39°13' E 001°15'1414.3
2015-Apr-26 00:33N 39°27' E 001°21'1514.6
2015-Apr-25 23:33N 39°40' E 001°28'1515.0
2015-Apr-25 22:33N 39°54' E 001°34'1515.0
2015-Apr-25 21:33N 40°08' E 001°41'1414.5
2015-Apr-25 20:33N 40°22' E 001°47'1514.6
2015-Apr-25 19:34N 40°36' E 001°54'1514.8
2015-Apr-25 18:33N 40°50' E 002°00'1514.9
2015-Apr-25 17:33N 41°04' E 002°07'1514.5
2015-Apr-25 16:32N 41°18' E 002°10'0 0.0
2015-Apr-25 08:13N 41°18' E 002°11'1113.8
2015-Apr-25 07:25N 41°08' E 002°05'1314.8
2015-Apr-25 06:33N 40°59' E 001°53'1515.0
2015-Apr-25 05:34N 40°48' E 001°40'1212.0
2015-Apr-25 04:33N 40°39' E 001°29'1010.0
2015-Apr-25 03:33N 40°33' E 001°18'1110.0
2015-Apr-25 02:27N 40°26' E 001°07'910.0
2015-Apr-25 01:33N 40°20' E 000°58'1110.0
2015-Apr-25 00:27N 40°13' E 000°47'13 9.9
2015-Apr-24 23:07N 40°06' E 000°33'46 1.3
2015-Apr-23 12:33N 39°31' W 000°07'8514.1
2015-Apr-23 06:30N 38°08' E 000°20'3115.6
2015-Apr-23 04:32N 37°37' E 000°17'1815.8
2015-Apr-23 03:23N 37°19' E 000°14'1615.4
2015-Apr-23 02:22N 37°04' E 000°12'  
2015-Apr-20 14:26N 35°58' E 000°03'0 0.0
2015-Apr-20 13:26N 35°58' E 000°03'  

Dump ship's entire track history